Time;durP1;ratioP1;P1;durP2;ratioP2;P2;SDS_P1;SDS_P2;PMS_P1;PMS_P2;Temp;Humidity;BMP_temperature;BMP_pressure;BME280_temperature;BME280_humidity;BME280_pressure;Samples;Min_cycle;Max_cycle;Signal;HPM_P1;HPM_P2
2023/04/24 00:00:32;;;;;;;5.85;2.08;;;;;;;-146.27;100.00;83806.66;5084383;28;20375;-66
2023/04/24 00:02:57;;;;;;;4.15;2.10;;;;;;;-146.27;100.00;83836.81;5088280;28;20021;-64
2023/04/24 00:05:23;;;;;;;3.97;1.95;;;;;;;-146.27;100.00;83802.66;5089502;28;20470;-66
2023/04/24 00:07:52;;;;;;;4.15;1.60;;;;;;;-146.27;100.00;83854.91;5085702;28;20051;-66
2023/04/24 00:10:17;;;;;;;4.22;2.10;;;;;;;-146.27;100.00;83862.94;5082545;28;20032;-66
2023/04/24 00:12:43;;;;;;;2.13;1.70;;;;;;;-146.27;100.00;83881.03;5083478;28;20618;-65
2023/04/24 00:15:09;;;;;;;4.82;1.95;;;;;;;-146.27;100.00;83862.94;5087217;28;20028;-66
2023/04/24 00:17:34;;;;;;;3.85;1.52;;;;;;;-146.27;100.00;83875.00;5089577;28;20361;-65
2023/04/24 00:20:00;;;;;;;4.63;1.50;;;;;;;-146.27;100.00;83881.03;5083678;28;20024;-65
2023/04/24 00:22:27;;;;;;;10.68;2.08;;;;;;;-146.27;100.00;83911.16;5078019;28;20032;-66
2023/04/24 00:24:52;;;;;;;7.53;1.90;;;;;;;-146.27;100.00;83883.03;5075508;28;20025;-66
2023/04/24 00:27:17;;;;;;;3.25;1.80;;;;;;;-146.27;100.00;83818.72;5090715;28;20357;-66
2023/04/24 00:29:43;;;;;;;4.85;2.78;;;;;;;-146.27;100.00;83939.31;5082158;28;20077;-65
2023/04/24 00:32:08;;;;;;;4.25;1.70;;;;;;;-146.27;100.00;83838.81;5091442;28;20093;-66
2023/04/24 00:34:33;;;;;;;5.53;2.47;;;;;;;-146.27;100.00;83854.91;5090774;28;20028;-65
2023/04/24 00:36:59;;;;;;;3.78;2.10;;;;;;;-146.27;100.00;83862.94;5091126;28;20038;-66
2023/04/24 00:39:24;;;;;;;5.97;2.00;;;;;;;-146.27;100.00;83858.91;5086724;28;20099;-66
2023/04/24 00:41:50;;;;;;;3.40;2.45;;;;;;;-146.27;100.00;83870.97;5086974;28;20028;-65
2023/04/24 00:44:16;;;;;;;5.38;2.42;;;;;;;-146.27;100.00;83903.13;5090269;28;20458;-66
2023/04/24 00:46:42;;;;;;;4.25;2.20;;;;;;;-146.27;100.00;83850.88;5091075;28;20116;-66
2023/04/24 00:49:07;;;;;;;2.97;1.85;;;;;;;-146.27;100.00;83961.41;5087193;28;20029;-65
2023/04/24 00:51:34;;;;;;;4.43;1.65;;;;;;;-146.27;100.00;83824.75;5088601;28;20042;-67
2023/04/24 00:54:00;;;;;;;2.47;1.65;;;;;;;-146.27;100.00;83830.78;5087894;28;20046;-65
2023/04/24 00:56:25;;;;;;;7.22;1.95;;;;;;;-146.27;100.00;83856.91;5093601;28;20039;-65
2023/04/24 00:58:51;;;;;;;3.10;1.90;;;;;;;-146.27;100.00;83858.91;5090804;28;20031;-65
2023/04/24 01:01:20;;;;;;;4.18;2.20;;;;;;;-146.27;100.00;83856.91;5089988;28;20134;-65
2023/04/24 01:03:46;;;;;;;2.80;1.90;;;;;;;-146.27;100.00;83852.88;5090733;28;20708;-66
2023/04/24 01:06:12;;;;;;;7.72;1.98;;;;;;;-146.27;100.00;83864.94;5091959;28;20069;-65
2023/04/24 01:08:39;;;;;;;5.57;1.85;;;;;;;-146.27;100.00;83872.97;5087779;28;20100;-65
2023/04/24 01:11:05;;;;;;;5.63;2.33;;;;;;;-146.27;100.00;83842.84;5093413;28;20024;-66
2023/04/24 01:13:32;;;;;;;4.30;1.70;;;;;;;-146.27;100.00;83850.88;5092998;28;20023;-65
2023/04/24 01:15:59;;;;;;;7.00;1.98;;;;;;;-146.27;100.00;83870.97;5087291;28;20048;-65
2023/04/24 01:18:24;;;;;;;6.70;2.10;;;;;;;-146.27;100.00;83870.97;5091556;28;20077;-67
2023/04/24 01:20:54;;;;;;;2.53;1.80;;;;;;;-146.27;100.00;83856.91;5090925;28;20186;-65
2023/04/24 01:23:19;;;;;;;3.08;1.90;;;;;;;-146.27;100.00;83866.97;5087109;28;20024;-65
2023/04/24 01:25:45;;;;;;;4.10;1.63;;;;;;;-146.27;100.00;83883.03;5087651;28;20093;-65
2023/04/24 01:28:10;;;;;;;4.43;1.73;;;;;;;-146.27;100.00;83814.72;5094576;28;20028;-66
2023/04/24 01:30:36;;;;;;;5.38;2.10;;;;;;;-146.27;100.00;83858.91;5091912;28;20062;-66
2023/04/24 01:33:02;;;;;;;4.15;1.67;;;;;;;-146.27;100.00;83866.97;5089135;28;20021;-66
2023/04/24 01:35:27;;;;;;;3.20;2.33;;;;;;;-146.27;100.00;83832.78;5085674;28;20028;-65
2023/04/24 01:37:53;;;;;;;2.90;1.83;;;;;;;-146.27;100.00;83826.75;5081891;28;20388;-66
2023/04/24 01:40:18;;;;;;;3.80;2.30;;;;;;;-146.27;100.00;83844.84;5090278;28;20355;-66
2023/04/24 01:42:45;;;;;;;3.67;2.08;;;;;;;-146.27;100.00;83903.13;5089179;28;20060;-66
2023/04/24 01:45:12;;;;;;;3.90;1.98;;;;;;;-146.27;100.00;83879.00;5091412;28;20024;-66
2023/04/24 01:47:38;;;;;;;3.70;2.10;;;;;;;-146.27;100.00;83818.72;5094086;28;20024;-66
2023/04/24 01:50:04;;;;;;;5.10;1.70;;;;;;;-146.27;100.00;83866.97;5091461;28;20020;-65
2023/04/24 01:52:31;;;;;;;4.07;1.70;;;;;;;-146.27;100.00;83828.78;5073660;28;20035;-65
2023/04/24 01:54:59;;;;;;;4.18;1.73;;;;;;;-146.27;100.00;83870.97;5083226;28;20037;-66
2023/04/24 01:57:24;;;;;;;3.80;1.95;;;;;;;-146.27;100.00;83844.84;5091125;28;20028;-65
2023/04/24 01:59:50;;;;;;;5.85;1.70;;;;;;;-146.27;100.00;83850.88;5091267;28;20433;-65
2023/04/24 02:02:16;;;;;;;3.22;1.50;;;;;;;-146.27;100.00;83881.03;5088138;28;20493;-65
2023/04/24 02:04:41;;;;;;;6.47;1.90;;;;;;;-146.27;100.00;83866.97;5090649;28;20028;-66
2023/04/24 02:07:06;;;;;;;5.82;1.63;;;;;;;-146.27;100.00;83846.84;5092421;28;20039;-66
2023/04/24 02:09:32;;;;;;;4.57;1.80;;;;;;;-146.27;100.00;83875.00;5083848;28;20039;-66
2023/04/24 02:11:57;;;;;;;5.60;1.73;;;;;;;-146.27;100.00;83846.84;5076044;28;20410;-66
2023/04/24 02:14:22;;;;;;;5.10;1.92;;;;;;;-146.27;100.00;83818.72;5088492;28;20367;-65
2023/04/24 02:16:48;;;;;;;4.03;1.80;;;;;;;-146.27;100.00;83903.13;5090453;28;20023;-66
2023/04/24 02:19:13;;;;;;;3.83;1.67;;;;;;;-146.27;100.00;83907.16;5090098;28;20076;-67
2023/04/24 02:21:38;;;;;;;7.07;2.30;;;;;;;-146.27;100.00;83879.00;5093091;28;20028;-66
2023/04/24 02:24:04;;;;;;;4.40;2.25;;;;;;;-146.27;100.00;83883.03;5079081;28;20024;-66
2023/04/24 02:26:31;;;;;;;3.10;2.17;;;;;;;-146.27;100.00;83828.78;5076334;28;20029;-65
2023/04/24 02:28:57;;;;;;;4.20;2.25;;;;;;;-146.27;100.00;83923.22;5073418;28;20028;-66
2023/04/24 02:31:22;;;;;;;3.92;1.95;;;;;;;-146.27;100.00;83860.94;5089946;28;20084;-65
2023/04/24 02:33:47;;;;;;;6.53;2.38;;;;;;;-146.27;100.00;83949.34;5092293;28;20031;-65
2023/04/24 02:36:13;;;;;;;2.35;1.48;;;;;;;-146.27;100.00;83887.06;5090891;28;20028;-66
2023/04/24 02:38:39;;;;;;;6.07;1.48;;;;;;;-146.27;100.00;83883.03;5091059;28;20031;-65
2023/04/24 02:41:06;;;;;;;4.35;1.35;;;;;;;-146.27;100.00;83923.22;5087244;28;20439;-66
2023/04/24 02:43:32;;;;;;;1.67;1.17;;;;;;;-146.27;100.00;83893.06;5081147;28;20514;-66
2023/04/24 02:45:57;;;;;;;3.53;1.10;;;;;;;-146.27;100.00;83931.25;5091224;28;20043;-66
2023/04/24 02:48:23;;;;;;;2.42;0.82;;;;;;;-146.27;100.00;83915.19;5072779;28;20025;-66
2023/04/24 02:50:48;;;;;;;3.15;0.90;;;;;;;-146.27;100.00;83959.41;5085366;28;20547;-66
2023/04/24 02:53:14;;;;;;;3.83;1.05;;;;;;;-146.27;100.00;83983.50;5082095;28;20020;-66
2023/04/24 02:55:39;;;;;;;5.65;1.27;;;;;;;-146.27;100.00;83967.44;5077461;28;20055;-66
2023/04/24 02:58:05;;;;;;;6.20;1.38;;;;;;;-146.27;100.00;83951.34;5079484;28;20503;-67
2023/04/24 03:00:31;;;;;;;1.27;0.95;;;;;;;-146.27;100.00;83959.41;5083120;28;20061;-66
2023/04/24 03:02:56;;;;;;;2.75;0.90;;;;;;;-146.27;100.00;83933.28;5072693;28;20039;-67
2023/04/24 03:05:22;;;;;;;9.38;0.85;;;;;;;-146.27;100.00;83999.59;5089192;28;20426;-66
2023/04/24 03:07:47;;;;;;;5.53;1.08;;;;;;;-146.27;100.00;83927.25;5087177;28;20439;-67
2023/04/24 03:10:13;;;;;;;1.77;0.90;;;;;;;-146.27;100.00;83939.31;5088896;28;20016;-67
2023/04/24 03:12:38;;;;;;;3.47;1.48;;;;;;;-146.27;100.00;83973.47;5089660;28;20020;-65
2023/04/24 03:15:04;;;;;;;3.60;1.00;;;;;;;-146.27;100.00;83935.28;5090592;28;20034;-67
2023/04/24 03:17:29;;;;;;;4.95;1.00;;;;;;;-146.27;100.00;83971.47;5089489;28;20114;-67
2023/04/24 03:19:55;;;;;;;2.53;0.60;;;;;;;-146.27;100.00;83945.31;5090582;28;20503;-66
2023/04/24 03:22:20;;;;;;;5.30;0.60;;;;;;;-146.27;100.00;83959.41;5091768;28;20064;-66
2023/04/24 03:24:45;;;;;;;0.88;0.70;;;;;;;-146.27;100.00;83991.56;5083274;28;20028;-66
2023/04/24 03:27:11;;;;;;;0.38;0.32;;;;;;;-146.27;100.00;83973.47;5090086;28;20055;-65
2023/04/24 03:29:36;;;;;;;2.53;0.40;;;;;;;-146.27;100.00;83985.53;5075426;28;20107;-66
2023/04/24 03:32:01;;;;;;;3.35;0.60;;;;;;;-146.27;100.00;83963.41;5075088;28;20016;-67
2023/04/24 03:34:26;;;;;;;1.60;0.60;;;;;;;-146.27;100.00;83979.50;5089546;28;20040;-66
2023/04/24 03:36:52;;;;;;;1.35;0.68;;;;;;;-146.27;100.00;83971.47;5069826;28;20112;-67
2023/04/24 03:39:18;;;;;;;6.15;0.80;;;;;;;-146.27;100.00;83963.41;5069286;28;20100;-65
2023/04/24 03:41:43;;;;;;;0.85;0.70;;;;;;;-146.27;100.00;83961.41;5077813;28;20392;-66
2023/04/24 03:44:08;;;;;;;8.05;1.38;;;;;;;-146.27;100.00;83963.41;5088168;28;20539;-65
2023/04/24 03:46:34;;;;;;;5.13;0.90;;;;;;;-146.27;100.00;83979.50;5089038;28;20020;-66
2023/04/24 03:48:59;;;;;;;1.15;0.88;;;;;;;-146.27;100.00;83947.34;5089862;28;20467;-67
2023/04/24 03:51:25;;;;;;;1.63;1.20;;;;;;;-146.27;100.00;83951.34;5086640;28;20027;-66
2023/04/24 03:53:50;;;;;;;0.60;0.60;;;;;;;-146.27;100.00;83973.47;5088328;28;20028;-66
2023/04/24 03:56:15;;;;;;;3.85;0.70;;;;;;;-146.27;100.00;83965.44;5091096;28;20112;-67
2023/04/24 03:58:42;;;;;;;3.75;0.70;;;;;;;-146.27;100.00;83949.34;5084088;28;20025;-66
2023/04/24 04:01:07;;;;;;;3.53;0.98;;;;;;;-146.27;100.00;83993.56;5081084;28;20361;-66
2023/04/24 04:03:33;;;;;;;2.38;0.90;;;;;;;-146.27;100.00;83937.28;5087791;28;20102;-66
2023/04/24 04:05:58;;;;;;;3.70;0.90;;;;;;;-146.27;100.00;83955.38;5090294;28;20028;-66
2023/04/24 04:08:23;;;;;;;2.50;1.05;;;;;;;-146.27;100.00;83951.34;5087666;28;20037;-67
2023/04/24 04:10:49;;;;;;;6.32;1.17;;;;;;;-146.27;100.00;83957.38;5090402;28;20020;-66
2023/04/24 04:13:15;;;;;;;2.17;1.00;;;;;;;-146.27;100.00;83945.31;5083336;28;20021;-66
2023/04/24 04:15:40;;;;;;;7.38;1.13;;;;;;;-146.27;100.00;83911.16;5083787;28;20028;-65
2023/04/24 04:18:06;;;;;;;1.27;1.00;;;;;;;-146.27;100.00;83939.31;5081949;28;20028;-66
2023/04/24 04:20:31;;;;;;;4.32;1.25;;;;;;;-146.27;100.00;83947.34;5085179;28;20024;-67
2023/04/24 04:22:56;;;;;;;4.45;1.30;;;;;;;-146.27;100.00;83955.38;5091268;28;20020;-67
2023/04/24 04:25:22;;;;;;;3.72;1.20;;;;;;;-146.27;100.00;83947.34;5090202;28;20107;-66
2023/04/24 04:27:48;;;;;;;3.95;1.75;;;;;;;-146.27;100.00;83939.31;5084244;28;20028;-65
2023/04/24 04:30:13;;;;;;;6.40;1.90;;;;;;;-146.27;100.00;83951.34;5084949;28;20024;-67
2023/04/24 04:32:39;;;;;;;7.85;2.05;;;;;;;-146.27;100.00;83941.31;5092700;28;20111;-66
2023/04/24 04:35:05;;;;;;;9.07;2.28;;;;;;;-146.27;100.00;83921.22;5094017;28;20032;-67
2023/04/24 04:37:31;;;;;;;3.67;2.17;;;;;;;-146.27;100.00;83927.25;5093758;28;20035;-66
2023/04/24 04:39:57;;;;;;;10.38;3.45;;;;;;;-146.27;100.00;83959.41;5086926;28;20028;-67
2023/04/24 04:42:24;;;;;;;11.43;3.67;;;;;;;-146.27;100.00;83927.25;5091192;28;20028;-66
2023/04/24 04:44:50;;;;;;;18.13;4.90;;;;;;;-146.27;100.00;83959.41;5084516;28;20493;-67
2023/04/24 04:47:17;;;;;;;20.48;6.18;;;;;;;-146.27;100.00;83955.38;5093440;28;20056;-68
2023/04/24 04:49:42;;;;;;;11.27;5.18;;;;;;;-146.27;100.00;83919.19;5092489;28;20036;-67
2023/04/24 04:52:08;;;;;;;16.17;5.75;;;;;;;-146.27;100.00;83933.28;5087369;28;20028;-67
2023/04/24 04:54:34;;;;;;;13.32;5.75;;;;;;;-146.27;100.00;83951.34;5091342;28;20066;-67
2023/04/24 04:57:00;;;;;;;13.80;5.70;;;;;;;-146.27;100.00;83971.47;5090289;28;20024;-66
2023/04/24 04:59:25;;;;;;;13.73;5.50;;;;;;;-146.27;100.00;83953.38;5086858;28;20032;-67
2023/04/24 05:01:51;;;;;;;13.82;6.03;;;;;;;-146.27;100.00;83987.53;5084765;28;20027;-66
2023/04/24 05:04:16;;;;;;;18.92;5.53;;;;;;;-146.27;100.00;83979.50;5087221;28;20048;-67
2023/04/24 05:06:41;;;;;;;20.58;8.32;;;;;;;-146.27;100.00;84003.59;5093595;28;20367;-67
2023/04/24 05:09:07;;;;;;;33.63;11.60;;;;;;;-146.27;100.00;83995.56;5091826;28;20049;-66
2023/04/24 05:11:32;;;;;;;39.42;12.77;;;;;;;-146.27;100.00;84021.69;5086515;28;20013;-66
2023/04/24 05:13:57;;;;;;;42.22;15.90;;;;;;;-146.27;100.00;83977.47;5082724;28;20450;-66
2023/04/24 05:16:23;;;;;;;43.30;16.33;;;;;;;-146.27;100.00;83987.53;5073266;28;20039;-66
2023/04/24 05:18:48;;;;;;;38.47;15.63;;;;;;;-146.27;100.00;84031.75;5089405;28;20073;-66
2023/04/24 05:21:13;;;;;;;39.80;15.77;;;;;;;-146.27;100.00;84015.66;5090900;28;20051;-67
2023/04/24 05:23:39;;;;;;;36.47;15.45;;;;;;;-146.27;100.00;84035.75;5092209;28;20085;-67
2023/04/24 05:26:04;;;;;;;37.63;15.05;;;;;;;-146.27;100.00;83989.53;5090631;28;20085;-67
2023/04/24 05:28:33;;;;;;;34.25;14.90;;;;;;;-146.27;100.00;84009.63;5088718;28;20036;-66
2023/04/24 05:30:59;;;;;;;31.35;14.25;;;;;;;-146.27;100.00;84045.81;5090708;28;20028;-66
2023/04/24 05:33:25;;;;;;;45.60;14.85;;;;;;;-146.27;100.00;84031.75;5080270;28;20036;-67
2023/04/24 05:35:50;;;;;;;46.22;13.55;;;;;;;-146.27;100.00;84031.75;5088592;28;20118;-67
2023/04/24 05:38:19;;;;;;;31.25;13.80;;;;;;;-146.27;100.00;84053.84;5087542;28;20039;-67
2023/04/24 05:40:47;;;;;;;30.40;13.25;;;;;;;-146.27;100.00;84043.81;5089282;28;20050;-67
2023/04/24 05:43:13;;;;;;;38.13;13.88;;;;;;;-146.27;100.00;84033.75;5089091;28;20043;-66
2023/04/24 05:45:38;;;;;;;38.13;14.10;;;;;;;-146.27;100.00;84071.94;5083195;28;20467;-68
2023/04/24 05:48:05;;;;;;;31.33;12.75;;;;;;;-146.27;100.00;84035.75;5098296;28;20031;-66
2023/04/24 05:50:31;;;;;;;30.13;12.25;;;;;;;-146.27;100.00;84051.84;5091221;28;20026;-68
2023/04/24 05:52:59;;;;;;;33.50;12.05;;;;;;;-146.27;100.00;84043.81;5085665;28;20024;-68
2023/04/24 05:55:25;;;;;;;34.97;13.02;;;;;;;-146.27;100.00;84039.78;5089691;28;20024;-66
2023/04/24 05:57:51;;;;;;;33.40;12.13;;;;;;;-146.27;100.00;84059.88;5086386;28;20043;-66
2023/04/24 06:00:19;;;;;;;35.42;12.10;;;;;;;-146.27;100.00;84051.84;5087118;28;20028;-67
2023/04/24 06:02:45;;;;;;;24.58;12.10;;;;;;;-146.27;100.00;84043.81;5079846;28;20024;-67
2023/04/24 06:05:10;;;;;;;28.20;11.82;;;;;;;-146.27;100.00;84039.78;5089959;28;20388;-67
2023/04/24 06:07:36;;;;;;;39.53;12.35;;;;;;;-146.27;100.00;84035.75;5085220;28;20101;-67
2023/04/24 06:10:01;;;;;;;36.28;10.52;;;;;;;-146.27;100.00;84047.81;5082888;28;20108;-68
2023/04/24 06:12:27;;;;;;;33.63;10.05;;;;;;;-146.27;100.00;84075.94;5090774;28;20098;-66
2023/04/24 06:14:54;;;;;;;32.22;9.02;;;;;;;-146.27;100.00;84059.88;5084669;28;20020;-66
2023/04/24 06:17:19;;;;;;;36.35;8.82;;;;;;;-146.27;100.00;84084.00;5091459;28;20070;-68
2023/04/24 06:19:44;;;;;;;30.98;7.65;;;;;;;-146.27;100.00;84079.97;5090704;28;20111;-68
2023/04/24 06:22:10;;;;;;;30.58;8.43;;;;;;;-146.27;100.00;84069.94;5083794;28;20443;-67
2023/04/24 06:24:36;;;;;;;36.83;7.78;;;;;;;-146.27;100.00;84047.81;5091038;28;20024;-66
2023/04/24 06:27:01;;;;;;;30.58;7.10;;;;;;;-146.27;100.00;84075.94;5086696;28;20032;-70
2023/04/24 06:29:27;;;;;;;35.33;7.28;;;;;;;-146.27;100.00;84096.06;5086180;28;20025;-65
2023/04/24 06:31:52;;;;;;;37.40;8.15;;;;;;;-146.27;100.00;84098.06;5089074;28;20523;-66
2023/04/24 06:34:18;;;;;;;31.15;7.50;;;;;;;-146.27;100.00;84077.97;5091954;28;20040;-66
2023/04/24 06:36:43;;;;;;;31.33;7.13;;;;;;;-146.27;100.00;84063.91;5084856;28;20059;-67
2023/04/24 06:39:08;;;;;;;24.08;5.38;;;;;;;-146.27;100.00;84108.09;5086743;28;20055;-68
2023/04/24 06:41:34;;;;;;;34.55;6.60;;;;;;;-146.27;100.00;84073.94;5088959;28;20089;-66
2023/04/24 06:44:00;;;;;;;25.95;6.70;;;;;;;-146.27;100.00;84069.94;5092076;28;20036;-66
2023/04/24 06:46:27;;;;;;;27.60;6.65;;;;;;;-146.27;100.00;84071.94;5091533;28;20135;-67
2023/04/24 06:48:55;;;;;;;23.83;6.03;;;;;;;-146.27;100.00;84049.84;5091431;28;20028;-68
2023/04/24 06:51:26;;;;;;;18.30;6.95;;;;;;;-146.27;100.00;84096.06;5087560;28;20022;-67
2023/04/24 06:53:53;;;;;;;19.63;6.05;;;;;;;-146.27;100.00;84071.94;5089478;28;20032;-69
2023/04/24 06:56:20;;;;;;;24.92;5.13;;;;;;;-146.27;100.00;84100.06;5091345;28;20121;-67
2023/04/24 06:58:45;;;;;;;23.88;6.68;;;;;;;-146.27;100.00;84059.88;5091194;28;20027;-67
2023/04/24 07:01:11;;;;;;;23.77;4.22;;;;;;;-146.27;100.00;84047.81;5087031;28;20437;-67
2023/04/24 07:03:36;;;;;;;17.48;5.03;;;;;;;-146.27;100.00;84096.06;5090504;28;20027;-67
2023/04/24 07:06:03;;;;;;;34.33;5.13;;;;;;;-146.27;100.00;84086.00;5090627;28;20026;-67
2023/04/24 07:08:30;;;;;;;14.82;3.47;;;;;;;-146.27;100.00;84088.00;5090111;28;20407;-68
2023/04/24 07:10:56;;;;;;;29.20;4.50;;;;;;;-146.27;100.00;84088.00;5091593;28;20031;-68
2023/04/24 07:13:22;;;;;;;25.33;5.15;;;;;;;-146.27;100.00;84075.94;5090294;28;20035;-68
2023/04/24 07:15:50;;;;;;;24.63;4.10;;;;;;;-146.27;100.00;84120.16;5090093;28;20477;-69
2023/04/24 07:18:15;;;;;;;26.38;4.45;;;;;;;-146.27;100.00;84067.91;5087477;28;20032;-67
2023/04/24 07:20:41;;;;;;;29.65;4.38;;;;;;;-146.27;100.00;84071.94;5092079;28;20039;-67
2023/04/24 07:23:06;;;;;;;19.90;4.20;;;;;;;-146.27;100.00;84051.84;5091178;28;20089;-67
2023/04/24 07:25:31;;;;;;;15.70;2.85;;;;;;;-146.27;100.00;84073.94;5091682;28;20032;-67
2023/04/24 07:27:57;;;;;;;17.38;3.53;;;;;;;-146.27;100.00;84098.06;5091861;28;20491;-68
2023/04/24 07:30:22;;;;;;;18.25;3.50;;;;;;;-146.27;100.00;84084.00;5091203;28;20085;-68
2023/04/24 07:32:47;;;;;;;8.73;3.47;;;;;;;-146.27;100.00;84061.88;5090764;28;20028;-70
2023/04/24 07:35:13;;;;;;;14.65;2.58;;;;;;;-146.27;100.00;84037.78;5089298;28;20039;-67
2023/04/24 07:37:38;;;;;;;20.83;2.63;;;;;;;-146.27;100.00;84063.91;5086634;28;20020;-68
2023/04/24 07:40:04;;;;;;;12.23;2.67;;;;;;;-146.27;100.00;84047.81;5083796;28;20028;-68
2023/04/24 07:42:30;;;;;;;25.63;3.13;;;;;;;-146.27;100.00;84047.81;5090349;28;20091;-69
2023/04/24 07:44:56;;;;;;;17.88;2.55;;;;;;;-146.27;100.00;84051.84;5089178;28;20032;-69
2023/04/24 07:47:21;;;;;;;10.02;2.20;;;;;;;-146.27;100.00;84033.75;5091315;28;20028;-68
2023/04/24 07:49:47;;;;;;;14.90;3.03;;;;;;;-146.27;100.00;84067.91;5084987;28;20051;-69
2023/04/24 07:52:12;;;;;;;13.43;2.63;;;;;;;-146.27;100.00;84031.75;5087774;28;20095;-69
2023/04/24 07:54:37;;;;;;;24.88;3.33;;;;;;;-146.27;100.00;84047.81;5089697;28;20510;-69
2023/04/24 07:57:03;;;;;;;15.00;2.80;;;;;;;-146.27;100.00;84059.88;5091553;28;20027;-68
2023/04/24 07:59:28;;;;;;;13.30;2.75;;;;;;;-146.27;100.00;84043.81;5086295;28;20107;-69
2023/04/24 08:01:54;;;;;;;11.15;2.80;;;;;;;-146.27;100.00;84075.94;5085614;28;20020;-69
2023/04/24 08:04:19;;;;;;;13.15;2.85;;;;;;;-146.27;100.00;84063.91;5084222;28;20024;-67
2023/04/24 08:06:45;;;;;;;12.65;2.85;;;;;;;-146.27;100.00;84059.88;5093099;28;20032;-68
2023/04/24 08:09:10;;;;;;;17.17;2.53;;;;;;;-146.27;100.00;83975.47;5090437;28;20044;-68
2023/04/24 08:11:35;;;;;;;17.92;4.20;;;;;;;-146.27;100.00;84045.81;5087290;28;20055;-68
2023/04/24 08:14:01;;;;;;;22.10;3.08;;;;;;;-146.27;100.00;84015.66;5092917;28;20047;-69
2023/04/24 08:16:27;;;;;;;14.63;2.75;;;;;;;-146.27;100.00;84019.69;5094307;28;20027;-68
2023/04/24 08:18:53;;;;;;;11.63;2.22;;;;;;;-146.27;100.00;84015.66;5089641;28;20024;-67
2023/04/24 08:21:18;;;;;;;11.02;2.65;;;;;;;-146.27;100.00;84039.78;5095382;28;20502;-67
2023/04/24 08:23:45;;;;;;;6.63;2.15;;;;;;;-146.27;100.00;83983.50;5093883;28;20024;-68
2023/04/24 08:26:11;;;;;;;8.90;2.47;;;;;;;-146.27;100.00;83975.47;5095477;28;20045;-67
2023/04/24 08:28:37;;;;;;;17.30;3.08;;;;;;;-146.27;100.00;83991.56;5089229;28;20040;-68
2023/04/24 08:31:02;;;;;;;9.25;2.75;;;;;;;-146.27;100.00;84003.59;5071387;28;20032;-68
2023/04/24 08:33:33;;;;;;;8.65;2.05;;;;;;;-146.27;100.00;84037.78;5095397;28;20023;-66
2023/04/24 08:36:00;;;;;;;5.25;1.70;;;;;;;-146.27;99.71;84003.59;5095658;28;20103;-68
2023/04/24 08:38:26;;;;;;;3.92;1.80;;;;;;;-146.27;100.00;84013.66;5090588;28;20396;-68
2023/04/24 08:40:51;;;;;;;12.23;1.70;;;;;;;-146.27;99.98;83999.59;5094723;28;20073;-67
2023/04/24 08:43:17;;;;;;;6.88;1.63;;;;;;;-146.27;99.69;83985.53;5091054;28;20034;-67
2023/04/24 08:45:42;;;;;;;13.45;1.98;;;;;;;-146.27;100.00;84019.69;5095187;28;20464;-68
2023/04/24 08:48:09;;;;;;;12.95;1.80;;;;;;;-146.27;100.00;84035.75;5095263;28;20027;-68
2023/04/24 08:50:35;;;;;;;15.05;3.15;;;;;;;-146.27;100.00;84005.63;5087637;28;20036;-68
2023/04/24 08:53:01;;;;;;;12.25;1.98;;;;;;;-146.27;100.00;84023.69;5091560;28;20024;-67
2023/04/24 08:55:30;;;;;;;8.10;1.52;;;;;;;-146.27;100.00;83975.47;5094675;28;20102;-68
2023/04/24 08:57:56;;;;;;;6.18;1.02;;;;;;;-146.27;100.00;83939.31;5086578;28;20369;-68
2023/04/24 09:00:22;;;;;;;7.00;1.30;;;;;;;-146.27;99.96;83995.56;5074907;28;20016;-68
2023/04/24 09:02:49;;;;;;;5.40;1.70;;;;;;;-146.27;99.19;83973.47;5088153;28;20043;-68
2023/04/24 09:05:17;;;;;;;3.90;0.90;;;;;;;-146.27;98.47;83959.41;5093842;28;20027;-69
2023/04/24 09:07:45;;;;;;;4.65;1.40;;;;;;;-146.27;95.53;84007.63;5092731;28;20052;-68
2023/04/24 09:10:12;;;;;;;5.97;0.95;;;;;;;-146.27;97.29;84003.59;5097846;28;20078;-67
2023/04/24 09:12:37;;;;;;;4.35;1.38;;;;;;;-146.27;100.00;84047.81;5086813;28;20069;-67
2023/04/24 09:15:04;;;;;;;6.30;1.33;;;;;;;-146.27;100.00;84039.78;5094205;28;20433;-68
2023/04/24 09:17:30;;;;;;;10.20;1.27;;;;;;;-146.27;100.00;84011.66;5090508;28;20387;-69
2023/04/24 09:19:56;;;;;;;12.68;1.38;;;;;;;-146.27;100.00;83967.44;5088273;28;20028;-68
2023/04/24 09:22:21;;;;;;;6.07;0.80;;;;;;;-146.27;100.00;83971.47;5093561;28;20035;-68
2023/04/24 09:24:47;;;;;;;5.43;0.95;;;;;;;-146.27;100.00;83989.53;5054943;28;20020;-67
2023/04/24 09:27:13;;;;;;;8.65;1.77;;;;;;;-146.27;100.00;83971.47;5091991;28;20035;-68
2023/04/24 09:29:38;;;;;;;10.35;1.00;;;;;;;-146.27;100.00;83915.19;5080845;28;20028;-69
2023/04/24 09:32:29;;;;;;;5.75;0.80;;;;;;;-146.27;98.47;83947.34;5084896;28;20031;-67
2023/04/24 09:35:15;;;;;;;5.00;1.00;;;;;;;-146.27;98.10;83951.34;5090912;28;20436;-68
2023/04/24 09:37:46;;;;;;;3.05;0.93;;;;;;;-146.27;94.78;83925.22;5079019;28;20019;-67
2023/04/24 09:40:16;;;;;;;4.13;1.10;;;;;;;-146.27;94.35;83915.19;5084715;28;20056;-66
2023/04/24 09:42:51;;;;;;;7.63;0.95;;;;;;;-146.27;94.16;83877.00;5079271;28;20025;-67
2023/04/24 09:45:16;;;;;;;8.98;1.23;;;;;;;-146.27;94.56;83862.94;5088608;28;20043;-68
2023/04/24 09:47:42;;;;;;;7.55;1.10;;;;;;;-146.27;95.28;83885.03;5092199;28;20024;-69
2023/04/24 09:50:12;;;;;;;3.65;0.65;;;;;;;-146.27;95.26;83899.09;5094252;28;20024;-68
2023/04/24 09:52:42;;;;;;;5.07;1.02;;;;;;;-146.27;94.27;84003.59;5092772;28;20024;-68
2023/04/24 09:55:16;;;;;;;3.35;0.85;;;;;;;-146.27;92.43;83935.28;5093372;28;20027;-67
2023/04/24 09:57:53;;;;;;;5.22;1.17;;;;;;;-146.27;97.16;83971.47;5093649;28;20016;-68
2023/04/24 10:00:23;;;;;;;9.63;1.70;;;;;;;-146.27;100.00;83979.50;5089779;28;20043;-68
2023/04/24 10:03:02;;;;;;;8.90;1.30;;;;;;;-146.27;100.00;83991.56;5076058;28;20537;-68
2023/04/24 10:05:33;;;;;;;6.97;0.73;;;;;;;-146.27;100.00;84049.84;5078415;28;20484;-67
2023/04/24 10:08:10;;;;;;;6.20;0.73;;;;;;;-146.27;100.00;84031.75;5089593;28;20101;-69
2023/04/24 10:10:41;;;;;;;4.05;0.65;;;;;;;-146.27;100.00;84039.78;5086682;28;21738;-68
2023/04/24 10:13:07;;;;;;;8.35;1.67;;;;;;;-146.27;100.00;84063.91;5092289;28;20357;-67
2023/04/24 10:15:33;;;;;;;5.65;0.90;;;;;;;-146.27;100.00;84025.72;5076078;28;20078;-67
2023/04/24 10:17:59;;;;;;;2.80;0.70;;;;;;;-146.27;100.00;84017.69;5075629;28;20040;-70
2023/04/24 10:20:29;;;;;;;2.72;0.70;;;;;;;-146.27;100.00;84007.63;5079524;28;20114;-69
2023/04/24 10:22:55;;;;;;;5.18;1.02;;;;;;;-146.27;100.00;83951.34;5089567;28;20027;-67
2023/04/24 10:25:23;;;;;;;5.13;0.80;;;;;;;-146.27;100.00;83979.50;5093364;28;20051;-67
2023/04/24 10:27:50;;;;;;;3.90;0.85;;;;;;;-146.27;100.00;83963.41;5091039;28;20048;-67
2023/04/24 10:30:17;;;;;;;7.55;1.10;;;;;;;-146.27;100.00;83864.94;5092515;28;20771;-68
2023/04/24 10:32:43;;;;;;;7.07;1.02;;;;;;;-146.27;100.00;83905.13;5093353;28;20026;-68
2023/04/24 10:35:11;;;;;;;6.30;0.85;;;;;;;-146.27;100.00;83864.94;5075732;28;20028;-69
2023/04/24 10:37:40;;;;;;;9.20;0.95;;;;;;;-146.27;99.97;83804.66;5090541;28;20031;-68
2023/04/24 10:40:08;;;;;;;6.93;1.27;;;;;;;-146.27;97.67;83838.81;5092463;28;20027;-68
2023/04/24 10:42:33;;;;;;;4.80;1.30;;;;;;;-146.27;97.76;83808.69;5089012;28;20391;-67
2023/04/24 10:44:58;;;;;;;9.18;1.33;;;;;;;-146.27;98.27;83806.66;5086218;28;20020;-68
2023/04/24 10:47:25;;;;;;;15.43;1.40;;;;;;;-146.27;98.10;83850.88;5092825;28;20028;-69
2023/04/24 10:49:51;;;;;;;7.40;1.38;;;;;;;-146.27;100.00;83877.00;5086437;28;20020;-69
2023/04/24 10:52:16;;;;;;;7.03;1.42;;;;;;;-146.27;100.00;83889.06;5084891;28;20035;-68
2023/04/24 10:54:43;;;;;;;8.73;1.60;;;;;;;-146.27;100.00;83907.16;5077606;28;20459;-67
2023/04/24 10:57:24;;;;;;;7.25;1.63;;;;;;;-146.27;100.00;83927.25;5086565;28;20112;-68
2023/04/24 11:00:12;;;;;;;6.28;1.00;;;;;;;-146.27;100.00;83903.13;5079964;28;20113;-68
2023/04/24 11:02:40;;;;;;;4.78;0.98;;;;;;;-146.27;99.33;83850.88;5086141;28;20100;-68